Ras Al Khaimah, UAE

10:13 AM GST on August 23, 2014 (GMT +0400)
Ras Al Khaimah International | Change Station
CLOSE
Current Station
Airport
Location: Ras Al Khaimah,
Elevation: 102 ft
Nearby Weather Stations

Elev 102 ft 25.61 °N, 55.94 °E | Updated 13 minutes ago

Clear
Clear
97 °F
Feels Like 107 °F
N
25
Wind Variable Wind from ESE

Today
High -- | Low -- °F
--% Chance of Precip.
Yesterday
High -- | Low -- °F
Precip. -- in
5:52 AM 6:44 PM
Waning Crescent, 5% visible
Pressure 29.59 in
Visibility 4.3 miles
Clouds
Heat Index 107 °F
Dew Point 73 °F
Humidity 47%
Rainfall 0.00 in
Snow Depth Not available.
UV Not available.
Pollen Not available.
Air Quality Not available.
Flu Activity Not available.
METAR OMRK 230600Z 11022KT 7000 NSC 36/23 Q1002 A2962

More Conditions Fewer Conditions

Pressure 29.59 in
Visibility 4.3 miles
Clouds
Heat Index 107 °F
Dew Point 73 °F
Humidity 47%
Rainfall 0.00 in
Snow Depth Not available.
UV Not available.
Pollen Not available.
Air Quality Not available.
Flu Activity Not available.
METAR OMRK 230600Z 11022KT 7000 NSC 36/23 Q1002 A2962

More Conditions Fewer Conditions

10-Day Weather Forecast

Almanac

Astronomy

Aug. 23, 2014 Rise Set
Actual Time 5:52 AM GST 6:44 PM GST
Civil Twilight 5:29 AM GST 7:08 PM GST
Nautical Twilight 5:01 AM GST 7:36 PM GST
Astronomical Twilight 4:32 AM GST 8:04 PM GST
Moon 3:52 AM GST 5:11 PM GST
Length of Visible Light 13h 39m
Length of Day
12h 51m
Tomorrow will be 1m 23s shorter.
Waning Crescent, 5% of the Moon is Illuminated
Today
Waning Crescent
Aug 25
New
Sep 2
First Quarter
Sep 8
Full
Sep 15
Last Quarter

Yesterday's Extremes

Country Highs Country Lows

Community

WunderPhotos

Upload Photos

1,746,371 photos uploaded!

WunderBlogs® & News

By Dr. Jeff Masters
Director of Meteorology, Weather Underground
By Kari Strenfel
Meteorologist, Weather Underground
By Christopher C. Burt
Weather Historian, Weather Underground
August 23, 2014
August 23, 2014
August 22, 2014

Nearby

Snow Depth

Not available.

Earthquake Activity

City Distance Mag. Time & Date
No recent earthquake activity has been reported nearby.
Minimum magnitude displayed is 2.5.

Coastal Water Temperatures

Place Temperature
No Stations Reporting

Nearby Weather Stations